createdAt,value
2018-07-24T16:29:00.258Z,6.35
2018-07-24T16:29:00.352Z,8.49
2018-07-24T16:29:00.391Z,8.49
2018-07-24T16:29:00.500Z,7.35
2018-07-24T16:29:00.591Z,7.25
2018-07-24T16:29:00.638Z,7.17
2018-07-24T16:29:00.734Z,8.22
2018-07-24T16:29:00.782Z,7.7
2018-07-24T16:29:00.830Z,9.77
2018-07-24T16:29:00.889Z,7.13
2018-07-24T16:29:00.993Z,7.64
2018-07-24T16:29:01.019Z,6.95
2018-07-24T16:29:01.109Z,7.46
2018-07-24T16:29:01.155Z,7.4
2018-07-24T16:29:01.216Z,7.96
2018-07-24T16:29:01.267Z,7.72
2018-07-24T16:29:01.381Z,7.51
2018-07-24T16:29:01.439Z,7.75
2018-07-24T16:29:01.509Z,7.32
2018-07-24T16:29:01.604Z,7.31
2018-07-24T16:29:01.660Z,6.39
2018-07-24T16:29:01.711Z,8.06
2018-07-24T16:29:01.783Z,7.39
2018-07-24T16:29:01.843Z,6.48
2018-07-24T16:29:01.897Z,6.43
2018-07-24T16:29:01.955Z,7.83
2018-07-24T16:29:02.050Z,6.56
2018-07-24T16:29:02.112Z,7.95
2018-07-24T16:29:02.189Z,7.79
2018-07-24T16:29:02.503Z,8.55
2018-07-24T16:29:02.573Z,9.41
2018-07-24T16:29:02.640Z,8.52
2018-07-24T16:29:02.704Z,8.01
2018-07-24T16:29:02.799Z,6.25
2018-07-24T16:29:02.821Z,8.06
2018-07-24T16:29:02.890Z,6.43
2018-07-24T16:29:03.037Z,6.02
2018-07-24T16:29:03.088Z,6.3
2018-07-24T16:29:03.165Z,7.49
2018-07-24T16:29:03.252Z,8.89
2018-07-24T16:29:03.317Z,7.27
2018-07-24T16:29:03.390Z,8.3
2018-07-24T16:29:03.476Z,7.87
2018-07-24T16:29:03.529Z,7.2
2018-07-24T16:29:03.620Z,6.48
2018-07-24T16:29:03.666Z,6.37
2018-07-24T16:29:03.744Z,7.46
2018-07-24T16:29:03.834Z,8.16
2018-07-24T16:29:03.908Z,7.59
2018-07-24T16:29:03.981Z,7.46
2018-07-24T16:29:04.045Z,7.22
2018-07-24T16:29:04.133Z,6.99
2018-07-24T16:29:04.181Z,6.25
2018-07-24T16:29:04.261Z,6.78
2018-07-24T16:29:04.341Z,6.43
2018-07-24T16:29:04.405Z,7.22
2018-07-24T16:29:04.489Z,6.51
2018-07-24T16:29:04.593Z,7.17
2018-07-24T16:29:04.666Z,6.53
2018-07-24T16:29:04.794Z,7.29
2018-07-24T16:29:04.878Z,8.71
2018-07-24T16:29:04.993Z,6.04
2018-07-24T16:29:05.097Z,8.23
2018-07-24T16:29:05.205Z,7.43
2018-07-24T16:29:05.300Z,8.19
2018-07-24T16:29:05.432Z,7.66
2018-07-24T16:29:05.495Z,7.71
2018-07-24T16:29:05.565Z,8.84
2018-07-24T16:29:05.632Z,7.76
2018-07-24T16:29:05.681Z,6.9
2018-07-24T16:29:05.750Z,6.56
2018-07-24T16:29:05.811Z,5.72
2018-07-24T16:29:05.873Z,6.59
2018-07-24T16:29:05.937Z,6.33
2018-07-24T16:29:06.021Z,7.41
2018-07-24T16:29:06.080Z,5.36
2018-07-24T16:29:06.158Z,6.45
2018-07-24T16:29:06.232Z,6.26
2018-07-24T16:29:06.302Z,7.27
2018-07-24T16:29:06.336Z,7.95
2018-07-24T16:29:06.413Z,6.72
2018-07-24T16:29:06.494Z,6.63
2018-07-24T16:29:06.543Z,6.09
2018-07-24T16:29:06.609Z,6.76
2018-07-24T16:29:06.667Z,6.77
2018-07-24T16:29:06.746Z,7.22
2018-07-24T16:29:06.822Z,6.47
2018-07-24T16:29:06.920Z,6.88
2018-07-24T16:29:07.022Z,8.11
2018-07-24T16:29:07.123Z,8.05
2018-07-24T16:29:07.231Z,9.81
2018-07-24T16:29:07.319Z,10.09
2018-07-24T16:29:07.341Z,7.86
2018-07-24T16:29:07.428Z,7.83
2018-07-24T16:29:07.510Z,8.57
2018-07-24T16:29:07.595Z,9.34
2018-07-24T16:29:07.623Z,8.35
2018-07-24T16:29:07.698Z,8.31
2018-07-24T16:29:07.759Z,9.37
2018-07-24T16:29:07.819Z,8.84
2018-07-24T16:29:07.868Z,9.56
2018-07-24T16:29:07.943Z,8.56
2018-07-24T16:29:08.043Z,8.19
2018-07-24T16:29:08.113Z,9.07
2018-07-24T16:29:08.168Z,7.56
2018-07-24T16:29:08.242Z,9.22
2018-07-24T16:29:08.326Z,9.33
2018-07-24T16:29:08.361Z,10.09
2018-07-24T16:29:08.414Z,9.84
2018-07-24T16:29:08.498Z,8.72
2018-07-24T16:29:08.546Z,10.09
2018-07-24T16:29:08.612Z,9.92
2018-07-24T16:29:08.700Z,9.34
2018-07-24T16:29:08.746Z,10.43
2018-07-24T16:29:08.797Z,10.27
2018-07-24T16:29:08.922Z,9.48
2018-07-24T16:29:09.005Z,12.34
2018-07-24T16:29:09.057Z,8.82
2018-07-24T16:29:09.137Z,8.63
2018-07-24T16:29:09.171Z,9.92
2018-07-24T16:29:09.230Z,11.32
2018-07-24T16:29:09.296Z,9.9
2018-07-24T16:29:09.371Z,10.39
2018-07-24T16:29:09.440Z,10.89
2018-07-24T16:29:09.473Z,10.93
2018-07-24T16:29:09.554Z,9.93
2018-07-24T16:29:09.616Z,9.4
2018-07-24T16:29:09.700Z,9.36
2018-07-24T16:29:09.821Z,9.49
2018-07-24T16:29:09.881Z,9.74
2018-07-24T16:29:09.935Z,9.72
2018-07-24T16:29:09.997Z,11.07
2018-07-24T16:29:10.079Z,10.24
2018-07-24T16:29:10.129Z,9.24
2018-07-24T16:29:10.180Z,9.79
2018-07-24T16:29:10.267Z,9.78
2018-07-24T16:29:10.363Z,7.23
2018-07-24T16:29:10.434Z,9.21
2018-07-24T16:29:10.516Z,9.08
2018-07-24T16:29:10.572Z,9.53
2018-07-24T16:29:10.630Z,9.71
2018-07-24T16:29:10.682Z,9.92
2018-07-24T16:29:10.760Z,10.43
2018-07-24T16:29:10.831Z,8
2018-07-24T16:29:10.876Z,9.42
2018-07-24T16:29:10.947Z,7.67
2018-07-24T16:29:11.016Z,9.82
2018-07-24T16:29:11.142Z,9.74
2018-07-24T16:29:11.201Z,9.7
2018-07-24T16:29:11.233Z,10.82
2018-07-24T16:29:11.356Z,9.2
2018-07-24T16:29:11.437Z,10.02
2018-07-24T16:29:11.506Z,9.72
2018-07-24T16:29:11.647Z,8.63
2018-07-24T16:29:11.689Z,8.93
2018-07-24T16:29:11.750Z,9.71
2018-07-24T16:29:11.860Z,8.13
2018-07-24T16:29:11.892Z,8.04
2018-07-24T16:29:11.933Z,7.87
2018-07-24T16:29:11.997Z,8.69
2018-07-24T16:29:12.067Z,7.65
2018-07-24T16:29:12.146Z,6.15
2018-07-24T16:29:12.228Z,8.56
2018-07-24T16:29:12.266Z,8.04
2018-07-24T16:29:12.339Z,8.78
2018-07-24T16:29:12.393Z,8.69
2018-07-24T16:29:12.442Z,8.89
2018-07-24T16:29:12.529Z,10.03
2018-07-24T16:29:12.615Z,12.09
2018-07-24T16:29:12.696Z,7.96
2018-07-24T16:29:12.748Z,8.11
2018-07-24T16:29:12.827Z,9.05
2018-07-24T16:29:12.908Z,7.42
2018-07-24T16:29:12.963Z,9.09
2018-07-24T16:29:13.101Z,8.75
2018-07-24T16:29:13.201Z,9.45
2018-07-24T16:29:13.311Z,11.27
2018-07-24T16:29:13.339Z,7.45
2018-07-24T16:29:13.405Z,10.03
2018-07-24T16:29:13.472Z,9.2
2018-07-24T16:29:13.555Z,8.44
2018-07-24T16:29:13.596Z,7.5
2018-07-24T16:29:13.673Z,9.16
2018-07-24T16:29:13.730Z,10.06
2018-07-24T16:29:13.795Z,7.68
2018-07-24T16:29:13.847Z,8.55
2018-07-24T16:29:13.958Z,5.54
2018-07-24T16:29:14.008Z,6.4
2018-07-24T16:29:14.106Z,3.13
2018-07-24T16:29:14.153Z,3.1
2018-07-24T16:29:14.437Z,3.76
2018-07-24T16:29:14.509Z,2.91
2018-07-24T16:29:14.546Z,3.08
2018-07-24T16:29:14.622Z,3.47
2018-07-24T16:29:14.685Z,4.76
2018-07-24T16:29:14.787Z,2.93
2018-07-24T16:29:14.877Z,3.54
2018-07-24T16:29:14.923Z,3.74
2018-07-24T16:29:14.970Z,4.19
2018-07-24T16:29:15.030Z,2.86
2018-07-24T16:29:15.076Z,4.62
2018-07-24T16:29:15.141Z,3.81
2018-07-24T16:29:15.224Z,3.5
2018-07-24T16:29:15.283Z,3.91
2018-07-24T16:29:15.343Z,4.1
2018-07-24T16:29:15.387Z,3.28
2018-07-24T16:29:15.447Z,3.41
2018-07-24T16:29:15.515Z,4.55
2018-07-24T16:29:15.584Z,4.83
2018-07-24T16:29:15.725Z,6.48
2018-07-24T16:29:15.786Z,4.79
2018-07-24T16:29:15.891Z,4.69
2018-07-24T16:29:16.006Z,6.01
2018-07-24T16:29:16.035Z,4.64
2018-07-24T16:29:16.118Z,5.59
2018-07-24T16:29:16.193Z,4.26
2018-07-24T16:29:16.252Z,3.78
2018-07-24T16:29:16.317Z,2.97
2018-07-24T16:29:16.364Z,2.93
2018-07-24T16:29:16.458Z,2.64
2018-07-24T16:29:16.499Z,2.73
2018-07-24T16:29:16.575Z,5.35
2018-07-24T16:29:16.615Z,4.33
2018-07-24T16:29:16.703Z,3.22
2018-07-24T16:29:16.836Z,4.86
2018-07-24T16:29:16.894Z,3.83
2018-07-24T16:29:16.998Z,4.12
2018-07-24T16:29:17.151Z,5.28
2018-07-24T16:29:17.223Z,3.84
2018-07-24T16:29:17.268Z,5.05
2018-07-24T16:29:17.317Z,5.19
2018-07-24T16:29:17.401Z,4.86
2018-07-24T16:29:17.426Z,5.43
2018-07-24T16:29:17.495Z,4.21
2018-07-24T16:29:17.582Z,5.18
2018-07-24T16:29:17.640Z,5.05
2018-07-24T16:29:17.694Z,5.46
2018-07-24T16:29:17.776Z,3.64
2018-07-24T16:29:17.840Z,4.52
2018-07-24T16:29:17.887Z,3.88
2018-07-24T16:29:18.002Z,4.15
2018-07-24T16:29:19.173Z,6.13
2018-07-24T16:29:19.303Z,5.56
2018-07-24T16:29:19.378Z,5.33
2018-07-24T16:29:19.426Z,5.79
2018-07-24T16:29:19.490Z,5.07
2018-07-24T16:29:19.572Z,5.48
2018-07-24T16:29:19.614Z,5.13
2018-07-24T16:29:19.678Z,5.64
2018-07-24T16:29:19.750Z,6.93
2018-07-24T16:29:19.793Z,6.28
2018-07-24T16:29:19.906Z,6.08
2018-07-24T16:29:19.946Z,4.49
2018-07-24T16:29:20.024Z,5.29
2018-07-24T16:29:20.117Z,4.62
2018-07-24T16:29:20.194Z,4.03
2018-07-24T16:29:20.230Z,5.23
2018-07-24T16:29:20.304Z,4.87
2018-07-24T16:29:20.360Z,5.62
2018-07-24T16:29:20.449Z,4.06
2018-07-24T16:29:20.505Z,4.32
2018-07-24T16:29:20.560Z,4.05
2018-07-24T16:29:20.642Z,4.21
2018-07-24T16:29:20.717Z,4.85
2018-07-24T16:29:20.772Z,4.05
2018-07-24T16:29:20.811Z,4.28
2018-07-24T16:29:20.926Z,3.42
2018-07-24T16:29:21.011Z,5.36
2018-07-24T16:29:21.034Z,6.22
2018-07-24T16:29:21.090Z,4.23
2018-07-24T16:29:21.166Z,3.77
2018-07-24T16:29:21.228Z,4.86
2018-07-24T16:29:21.302Z,4.03
2018-07-24T16:29:21.362Z,10.61
2018-07-24T16:29:21.446Z,5.65
2018-07-24T16:29:21.486Z,4.74
2018-07-24T16:29:21.546Z,4.41
2018-07-24T16:29:21.606Z,4.1
2018-07-24T16:29:21.728Z,5.04
2018-07-24T16:29:21.815Z,5.49
2018-07-24T16:29:21.885Z,5.75
2018-07-24T16:29:21.946Z,4.96
2018-07-24T16:29:22.016Z,5.89
2018-07-24T16:29:22.062Z,5.43
2018-07-24T16:29:22.146Z,5.08
2018-07-24T16:29:22.220Z,5.11
2018-07-24T16:29:22.255Z,5.07
2018-07-24T16:29:22.305Z,6.05
2018-07-24T16:29:22.385Z,5.66
2018-07-24T16:29:22.439Z,6.56
2018-07-24T16:29:22.552Z,6.45
2018-07-24T16:29:22.600Z,7.65
2018-07-24T16:29:22.682Z,7.39
2018-07-24T16:29:22.739Z,7.97
2018-07-24T16:29:22.905Z,6.66
2018-07-24T16:29:22.936Z,6.97
2018-07-24T16:29:23.023Z,8.53
2018-07-24T16:29:23.065Z,7.22
2018-07-24T16:29:23.132Z,6.98
2018-07-24T16:29:23.182Z,7.97
2018-07-24T16:29:24.349Z,8.53
2018-07-24T16:29:24.493Z,8.76
2018-07-24T16:29:24.551Z,8.22
2018-07-24T16:29:24.644Z,8.49
2018-07-24T16:29:24.752Z,8.13
2018-07-24T16:29:24.849Z,6.55
2018-07-24T16:29:24.887Z,6.28
2018-07-24T16:29:24.955Z,6.32
2018-07-24T16:29:25.008Z,5.75
2018-07-24T16:29:25.069Z,6.75
2018-07-24T16:29:25.132Z,7.59
2018-07-24T16:29:25.200Z,7.04
2018-07-24T16:29:25.276Z,5.92
2018-07-24T16:29:25.329Z,5.58
2018-07-24T16:29:25.376Z,6.95
2018-07-24T16:29:25.425Z,6.64
2018-07-24T16:29:25.497Z,7.59
2018-07-24T16:29:25.601Z,7.58
2018-07-24T16:29:25.646Z,7.98
2018-07-24T16:29:25.715Z,5.97
2018-07-24T16:29:25.774Z,5.83
2018-07-24T16:29:25.839Z,6.82
2018-07-24T16:29:25.928Z,6.79
2018-07-24T16:29:25.983Z,7.08
2018-07-24T16:29:26.031Z,6.31
2018-07-24T16:29:26.101Z,6.42
2018-07-24T16:29:26.183Z,6.34
2018-07-24T16:29:26.223Z,6.3
2018-07-24T16:29:26.316Z,5.74
2018-07-24T16:29:26.405Z,7.03
2018-07-24T16:29:26.495Z,6.5
2018-07-24T16:29:26.554Z,5.68
2018-07-24T16:29:26.614Z,6.42
2018-07-24T16:29:26.650Z,6.84
2018-07-24T16:29:26.724Z,5.72
2018-07-24T16:29:26.792Z,5.84
2018-07-24T16:29:26.833Z,6.32
2018-07-24T16:29:26.952Z,6.43
2018-07-24T16:29:26.973Z,6.75
2018-07-24T16:29:27.049Z,7.93
2018-07-24T16:29:27.099Z,5.24
2018-07-24T16:29:27.225Z,7.34
2018-07-24T16:29:27.278Z,6.42
2018-07-24T16:29:27.334Z,7.18
2018-07-24T16:29:27.409Z,6.46
2018-07-24T16:29:27.448Z,8.68
2018-07-24T16:29:27.534Z,8.02
2018-07-24T16:29:27.572Z,7.87
2018-07-24T16:29:27.669Z,7.34
2018-07-24T16:29:27.739Z,9.27
2018-07-24T16:29:27.796Z,7.77
2018-07-24T16:29:27.860Z,7.25
2018-07-24T16:29:27.946Z,8.09
2018-07-24T16:29:28.070Z,8.63
2018-07-24T16:29:28.163Z,6.65
2018-07-24T16:29:28.266Z,6.72
2018-07-24T16:29:28.582Z,6.54
2018-07-24T16:29:28.714Z,6.8
2018-07-24T16:29:28.778Z,7.55
2018-07-24T16:29:28.913Z,7.57
2018-07-24T16:29:29.012Z,8.37
2018-07-24T16:29:29.112Z,7.87
2018-07-24T16:29:29.197Z,7.43
2018-07-24T16:29:29.276Z,7.44
2018-07-24T16:29:29.361Z,7.98
2018-07-24T16:29:29.431Z,8.23
2018-07-24T16:29:29.441Z,8.3
2018-07-24T16:29:29.513Z,9.08
2018-07-24T16:29:29.590Z,6.61
2018-07-24T16:29:29.680Z,7.09
2018-07-24T16:29:29.723Z,7.03
2018-07-24T16:29:29.798Z,6.84
2018-07-24T16:29:29.839Z,7.36
2018-07-24T16:29:29.949Z,6.76
2018-07-24T16:29:29.956Z,6.1
2018-07-24T16:29:30.120Z,8.88
2018-07-24T16:29:30.168Z,7.81
2018-07-24T16:29:30.251Z,7.01
2018-07-24T16:29:30.293Z,5.91
2018-07-24T16:29:30.361Z,6.27
2018-07-24T16:29:30.420Z,6.06
2018-07-24T16:29:30.501Z,6.96
2018-07-24T16:29:30.549Z,7.36
2018-07-24T16:29:30.604Z,7.11
2018-07-24T16:29:30.672Z,8.91
2018-07-24T16:29:30.738Z,6.28
2018-07-24T16:29:30.828Z,6.57
2018-07-24T16:29:30.906Z,7.27
2018-07-24T16:29:31.037Z,7.94
2018-07-24T16:29:31.125Z,6.44
2018-07-24T16:29:31.177Z,7.76
2018-07-24T16:29:31.246Z,7.9
2018-07-24T16:29:31.309Z,6.67
2018-07-24T16:29:31.376Z,10.47
2018-07-24T16:29:31.427Z,6.49
2018-07-24T16:29:31.510Z,7.37
2018-07-24T16:29:31.536Z,6.66
2018-07-24T16:29:31.612Z,8.16
2018-07-24T16:29:31.663Z,10.66
2018-07-24T16:29:31.727Z,8.37
2018-07-24T16:29:31.798Z,7.43
2018-07-24T16:29:31.874Z,10.1
2018-07-24T16:29:31.973Z,11.19
2018-07-24T16:29:32.010Z,8.5
2018-07-24T16:29:32.070Z,8.1
2018-07-24T16:29:32.130Z,8.27
2018-07-24T16:29:32.213Z,9.95
2018-07-24T16:29:32.518Z,9.04
2018-07-24T16:29:32.569Z,8.32
2018-07-24T16:29:32.689Z,8.33
2018-07-24T16:29:32.747Z,9.23
2018-07-24T16:29:32.805Z,8.7
2018-07-24T16:29:32.866Z,7.01
2018-07-24T16:29:32.925Z,8.46
2018-07-24T16:29:32.995Z,9.05
2018-07-24T16:29:33.051Z,7.12
2018-07-24T16:29:33.096Z,7.54
2018-07-24T16:29:33.185Z,8.56
2018-07-24T16:29:33.240Z,6.48
2018-07-24T16:29:33.308Z,9.19
2018-07-24T16:29:33.366Z,7.34
2018-07-24T16:29:33.443Z,8.41
2018-07-24T16:29:33.549Z,7.83
2018-07-24T16:29:33.659Z,8.42
2018-07-24T16:29:33.745Z,9.38
2018-07-24T16:29:33.805Z,10.1
2018-07-24T16:29:33.868Z,8.48
2018-07-24T16:29:33.951Z,7.53
2018-07-24T16:29:34.011Z,8.99
2018-07-24T16:29:34.111Z,8.77
2018-07-24T16:29:34.119Z,9.36
2018-07-24T16:29:34.194Z,8.28
2018-07-24T16:29:34.244Z,8.79
2018-07-24T16:29:34.313Z,10.25
2018-07-24T16:29:34.418Z,8.79
2018-07-24T16:29:34.519Z,9.87
2018-07-24T16:31:35.044Z,5.84
2018-07-24T16:37:35.872Z,4.9
2018-07-24T16:41:36.443Z,5.34
2018-07-24T16:43:36.984Z,5.05
2018-07-24T16:47:37.559Z,5.72
2018-07-24T16:53:38.138Z,5.53
2018-07-24T16:57:38.820Z,4.74
2018-07-24T17:03:39.350Z,3.75
2018-07-24T17:07:39.949Z,5.29
2018-07-24T17:09:40.456Z,4.91
2018-07-24T17:13:41.056Z,6.55
2018-07-24T17:19:41.691Z,4.72
2018-07-24T17:23:42.255Z,4.46
2018-07-24T17:35:48.577Z,3.84
2018-07-24T17:35:48.672Z,4.59
2018-07-24T17:39:49.277Z,5.26
2018-07-24T17:45:49.958Z,4.78
2018-07-24T17:49:50.416Z,6.08
2018-07-24T17:55:50.979Z,4.95
2018-07-24T18:01:51.611Z,5.79
2018-07-24T18:05:52.290Z,5.69
2018-07-24T18:11:52.956Z,5.82
2018-07-24T18:15:53.598Z,5.62
2018-07-24T18:21:57.183Z,9.67
2018-07-24T18:27:57.851Z,4.97
2018-07-24T18:31:58.561Z,5.94
2018-07-24T18:37:59.192Z,5.24
2018-07-24T18:41:59.765Z,4.47
2018-07-24T18:44:00.359Z,4.87
2018-07-24T18:48:00.985Z,4.72
2018-07-24T18:54:01.579Z,5.24
2018-07-24T18:58:02.158Z,5.85
2018-07-24T19:04:02.771Z,5.22
2018-07-24T19:08:03.434Z,5.77
2018-07-24T19:10:06.949Z,5.15
2018-07-24T19:14:07.538Z,6.07
2018-07-24T19:20:08.184Z,5.53
2018-07-24T19:24:08.824Z,4.82
2018-07-24T19:30:09.749Z,5.49
2018-07-24T19:34:10.731Z,7.23
2018-07-24T19:36:11.259Z,8.35
2018-07-24T19:40:11.860Z,7.99
2018-07-24T19:46:12.863Z,8.01
2018-07-24T19:50:13.493Z,6.75
2018-07-24T19:56:14.097Z,5.41
2018-07-24T20:02:14.713Z,4.35
2018-07-24T20:06:15.356Z,4.99
2018-07-24T20:12:19.093Z,3.64
2018-07-24T20:16:19.858Z,4.92
2018-07-24T20:22:20.390Z,5.46
2018-07-24T20:28:21.064Z,5.32
2018-07-24T20:32:21.624Z,5.37
2018-07-24T20:38:22.367Z,4.95
2018-07-24T20:42:22.891Z,6.96
2018-07-24T20:44:23.432Z,5.34
2018-07-24T20:48:24.065Z,5.5
2018-07-24T20:54:24.641Z,6.84
2018-07-24T20:58:25.220Z,6.36
2018-07-24T21:04:25.882Z,6.19
2018-07-24T21:08:26.507Z,7.63
2018-07-24T21:10:27.207Z,6
2018-07-24T21:14:27.776Z,5.31
2018-07-24T21:20:28.345Z,7.01
2018-07-24T21:24:29.084Z,6.19
2018-07-24T21:30:30.067Z,5.18
2018-07-24T21:34:30.772Z,6.23
2018-07-24T21:36:31.280Z,5.37
2018-07-24T21:40:31.874Z,6.7
2018-07-24T21:46:32.449Z,5.74
2018-07-24T21:50:33.226Z,7.12
2018-07-24T21:56:33.878Z,6.59
2018-07-24T22:02:34.533Z,5.1
2018-07-24T22:06:35.168Z,6.65
2018-07-24T22:12:35.817Z,6.19
2018-07-24T22:16:36.458Z,7.05
2018-07-24T22:22:37.064Z,8.12
2018-07-24T22:28:37.765Z,5.84
2018-07-24T22:32:38.381Z,5.87
2018-07-24T22:38:39.063Z,5.09
2018-07-24T22:42:39.674Z,5.17
2018-07-24T22:44:40.281Z,5.85
2018-07-24T22:48:40.863Z,6.28
2018-07-24T22:54:41.465Z,6.72
2018-07-24T22:58:42.047Z,5.91
2018-07-24T23:04:42.718Z,4.66
2018-07-24T23:08:43.236Z,6.44
2018-07-24T23:10:43.917Z,5.39
2018-07-24T23:14:44.533Z,5.17
2018-07-24T23:20:45.518Z,4.45
2018-07-24T23:24:46.239Z,5.01
2018-07-24T23:30:46.831Z,7.01
2018-07-24T23:36:47.472Z,5.82
2018-07-24T23:40:48.107Z,5.94
2018-07-24T23:46:48.799Z,7.32
2018-07-24T23:50:49.311Z,6.45
2018-07-24T23:56:50.003Z,6.8
